createdAt,value
2023-11-01T00:02:07.207Z,87.21
2023-11-01T00:04:36.310Z,86.67
2023-11-01T00:07:05.671Z,86.21
2023-11-01T00:09:36.480Z,86.12
2023-11-01T00:12:07.035Z,86.25
2023-11-01T00:14:36.373Z,86.08
2023-11-01T00:17:05.923Z,85.62
2023-11-01T00:19:35.124Z,85.45
2023-11-01T00:22:04.511Z,85.49
2023-11-01T00:24:35.053Z,85.60
2023-11-01T00:27:04.626Z,85.30
2023-11-01T00:29:33.780Z,85.55
2023-11-01T00:32:03.054Z,85.32
2023-11-01T00:34:32.184Z,85.41
2023-11-01T00:37:01.715Z,85.34
2023-11-01T00:39:31.098Z,85.44
2023-11-01T00:42:02.513Z,85.47
2023-11-01T00:44:31.785Z,85.57
2023-11-01T00:47:01.128Z,85.17
2023-11-01T00:49:30.816Z,84.81
2023-11-01T00:52:00.282Z,84.83
2023-11-01T00:54:29.474Z,84.75
2023-11-01T00:57:00.406Z,84.76
2023-11-01T00:59:29.603Z,85.00
2023-11-01T01:01:58.016Z,84.91
2023-11-01T01:04:27.142Z,84.65
2023-11-01T01:06:57.384Z,84.87
2023-11-01T01:09:26.607Z,84.76
2023-11-01T01:11:56.084Z,84.61
2023-11-01T01:14:26.635Z,84.89
2023-11-01T01:16:56.172Z,84.60
2023-11-01T01:19:25.305Z,84.71
2023-11-01T01:21:54.750Z,84.63
2023-11-01T01:24:24.183Z,84.36
2023-11-01T01:26:53.740Z,84.32
2023-11-01T01:29:23.494Z,84.58
2023-11-01T01:31:54.571Z,84.38
2023-11-01T01:34:23.902Z,84.49
2023-11-01T01:36:53.335Z,84.33
2023-11-01T01:39:22.836Z,83.92
2023-11-01T01:41:52.371Z,84.26
2023-11-01T01:44:21.488Z,83.70
2023-11-01T01:46:51.080Z,83.59
2023-11-01T01:49:25.667Z,83.66
2023-11-01T01:51:57.339Z,83.62
2023-11-01T01:54:26.861Z,83.43
2023-11-01T01:56:56.548Z,83.34
2023-11-01T01:59:26.254Z,83.23
2023-11-01T02:01:58.159Z,83.09
2023-11-01T02:04:29.053Z,82.87
2023-11-01T02:07:00.078Z,82.90
2023-11-01T02:09:30.336Z,82.80
2023-11-01T02:12:00.670Z,82.58
2023-11-01T02:14:29.945Z,82.55
2023-11-01T02:16:59.326Z,82.62
2023-11-01T02:19:30.435Z,82.15
2023-11-01T02:22:00.124Z,81.80
2023-11-01T02:24:29.962Z,81.99
2023-11-01T02:26:59.467Z,81.94
2023-11-01T02:29:28.591Z,81.92
2023-11-01T02:31:58.224Z,81.59
2023-11-01T02:34:27.331Z,81.75
2023-11-01T02:36:57.140Z,81.23
2023-11-01T02:39:26.306Z,81.51
2023-11-01T02:41:57.457Z,81.37
2023-11-01T02:44:27.002Z,81.77
2023-11-01T02:46:56.643Z,81.53
2023-11-01T02:49:25.743Z,81.50
2023-11-01T02:51:55.239Z,81.18
2023-11-01T02:54:24.504Z,81.04
2023-11-01T02:56:58.419Z,81.18
2023-11-01T02:59:29.957Z,81.23
2023-11-01T03:01:59.553Z,81.18
2023-11-01T03:04:28.759Z,80.98
2023-11-01T03:06:58.296Z,80.82
2023-11-01T03:09:27.369Z,80.82
2023-11-01T03:11:56.982Z,80.85
2023-11-01T03:14:27.631Z,80.61
2023-11-01T03:16:57.161Z,80.84
2023-11-01T03:19:26.366Z,80.95
2023-11-01T03:21:56.915Z,80.62
2023-11-01T03:24:26.216Z,81.12
2023-11-01T03:26:55.767Z,81.25
2023-11-01T03:29:24.856Z,80.61
2023-11-01T03:31:55.917Z,80.71
2023-11-01T03:34:27.808Z,80.57
2023-11-01T03:36:57.386Z,80.79
2023-11-01T03:39:26.469Z,80.89
2023-11-01T03:41:56.101Z,80.83
2023-11-01T03:44:26.624Z,80.66
2023-11-01T03:46:57.675Z,81.05
2023-11-01T03:49:31.011Z,80.49
2023-11-01T03:52:00.989Z,80.39
2023-11-01T03:54:30.274Z,80.73
2023-11-01T03:56:59.681Z,80.50
2023-11-01T03:59:28.989Z,80.68
2023-11-01T04:01:59.982Z,80.48
2023-11-01T04:04:29.432Z,80.71
2023-11-01T04:06:58.691Z,80.88
2023-11-01T04:09:28.053Z,80.42
2023-11-01T04:11:57.302Z,80.39
2023-11-01T04:14:26.425Z,80.71
2023-11-01T04:16:57.233Z,80.33
2023-11-01T04:19:27.994Z,80.20
2023-11-01T04:21:57.447Z,79.82
2023-11-01T04:24:26.954Z,80.39
2023-11-01T04:26:56.692Z,80.44
2023-11-01T04:29:27.641Z,80.06
2023-11-01T04:31:57.219Z,79.88
2023-11-01T04:34:27.843Z,80.31
2023-11-01T04:36:57.377Z,80.18
2023-11-01T04:39:26.499Z,80.07
2023-11-01T04:41:55.947Z,80.17
2023-11-01T04:44:25.133Z,80.18
2023-11-01T04:46:54.536Z,80.17
2023-11-01T04:49:23.630Z,80.24
2023-11-01T04:51:54.460Z,80.26
2023-11-01T04:54:23.632Z,80.31
2023-11-01T04:56:53.012Z,80.55
2023-11-01T04:59:23.660Z,80.29
2023-11-01T05:01:53.212Z,80.60
2023-11-01T05:04:22.682Z,80.62
2023-11-01T05:06:53.569Z,80.81
2023-11-01T05:09:23.331Z,80.73
2023-11-01T05:11:53.285Z,80.90
2023-11-01T05:14:22.589Z,81.05
2023-11-01T05:16:51.978Z,80.90
2023-11-01T05:19:21.126Z,80.74
2023-11-01T05:21:50.820Z,80.99
2023-11-01T05:24:21.299Z,81.05
2023-11-01T05:26:50.854Z,80.76
2023-11-01T05:29:19.963Z,81.01
2023-11-01T05:31:49.432Z,81.15
2023-11-01T05:34:18.489Z,81.34
2023-11-01T05:36:47.913Z,80.89
2023-11-01T05:39:17.297Z,80.65
2023-11-01T05:41:48.793Z,80.86
2023-11-01T05:44:20.603Z,80.55
2023-11-01T05:46:53.758Z,80.66
2023-11-01T05:49:23.062Z,80.88
2023-11-01T05:51:52.586Z,81.14
2023-11-01T05:54:21.755Z,80.81
2023-11-01T05:56:52.562Z,80.92
2023-11-01T05:59:21.666Z,80.86
2023-11-01T06:01:54.199Z,80.90
2023-11-01T06:04:23.715Z,80.73
2023-11-01T06:06:53.150Z,80.91
2023-11-01T06:09:22.334Z,80.92
2023-11-01T06:11:53.542Z,81.17
2023-11-01T06:14:23.440Z,81.44
2023-11-01T06:16:52.994Z,81.22
2023-11-01T06:19:22.468Z,80.90
2023-11-01T06:21:51.971Z,80.87
2023-11-01T06:24:21.046Z,81.04
2023-11-01T06:26:50.585Z,80.60
2023-11-01T06:29:21.106Z,80.53
2023-11-01T06:31:51.165Z,80.79
2023-11-01T06:34:20.218Z,80.57
2023-11-01T06:36:49.694Z,80.91
2023-11-01T06:39:18.931Z,81.33
2023-11-01T06:41:48.403Z,80.89
2023-11-01T06:44:17.664Z,81.08
2023-11-01T06:46:48.501Z,80.66
2023-11-01T06:49:17.700Z,80.87
2023-11-01T06:51:47.115Z,81.11
2023-11-01T06:54:16.321Z,81.01
2023-11-01T06:56:49.023Z,80.98
2023-11-01T06:59:18.354Z,80.55
2023-11-01T07:01:49.344Z,80.40
2023-11-01T07:04:18.603Z,80.61
2023-11-01T07:06:48.015Z,81.00
2023-11-01T07:09:17.197Z,80.95
2023-11-01T07:11:46.661Z,80.72
2023-11-01T07:14:16.027Z,80.80
2023-11-01T07:16:46.679Z,80.77
2023-11-01T07:19:17.421Z,80.40
2023-11-01T07:21:47.897Z,80.42
2023-11-01T07:24:17.109Z,80.25
2023-11-01T07:26:46.453Z,79.75
2023-11-01T07:29:15.748Z,79.73
2023-11-01T07:31:45.102Z,79.49
2023-11-01T07:34:14.419Z,79.88
2023-11-01T07:36:45.218Z,79.48
2023-11-01T07:39:14.869Z,78.97
2023-11-01T07:41:44.229Z,79.99
2023-11-01T07:44:13.662Z,79.59
2023-11-01T07:46:43.127Z,80.65
2023-11-01T07:49:12.317Z,80.54
2023-11-01T07:51:42.196Z,80.04
2023-11-01T07:54:14.415Z,80.63
2023-11-01T07:56:44.001Z,80.28
2023-11-01T07:59:13.098Z,80.12
2023-11-01T08:01:42.862Z,79.56
2023-11-01T08:04:12.155Z,80.18
2023-11-01T08:06:41.831Z,80.71
2023-11-01T08:09:13.040Z,80.24
2023-11-01T08:11:42.554Z,80.35
2023-11-01T08:14:11.672Z,80.04
2023-11-01T08:16:41.219Z,79.80
2023-11-01T08:19:10.920Z,79.70
2023-11-01T08:21:40.461Z,79.27
2023-11-01T08:24:10.371Z,78.83
2023-11-01T08:26:41.519Z,79.40
2023-11-01T08:29:11.887Z,79.52
2023-11-01T08:31:41.724Z,79.17
2023-11-01T08:34:10.875Z,79.68
2023-11-01T08:36:40.328Z,79.77
2023-11-01T08:39:09.436Z,80.54
2023-11-01T08:41:40.988Z,79.74
2023-11-01T08:44:10.501Z,79.31
2023-11-01T08:46:39.909Z,80.02
2023-11-01T08:49:09.029Z,78.85
2023-11-01T08:51:40.245Z,79.97
2023-11-01T08:54:10.634Z,78.81
2023-11-01T08:56:41.524Z,78.88
2023-11-01T08:59:10.644Z,78.71
2023-11-01T09:01:41.914Z,78.99
2023-11-01T09:04:11.291Z,80.06
2023-11-01T09:06:40.789Z,79.70
2023-11-01T09:09:09.858Z,79.60
2023-11-01T09:11:40.949Z,79.64
2023-11-01T09:14:10.157Z,78.82
2023-11-01T09:16:39.672Z,79.13
2023-11-01T09:19:08.965Z,79.23
2023-11-01T09:21:39.321Z,77.76
2023-11-01T09:24:09.181Z,78.56
2023-11-01T09:26:40.091Z,78.95
2023-11-01T09:29:09.401Z,77.67
2023-11-01T09:31:38.804Z,77.11
2023-11-01T09:34:08.108Z,77.74
2023-11-01T09:36:37.480Z,77.69
2023-11-01T09:39:08.178Z,77.66
2023-11-01T09:41:45.448Z,77.83
2023-11-01T09:44:18.852Z,77.61
2023-11-01T09:46:49.425Z,75.71
2023-11-01T09:49:18.886Z,76.54
2023-11-01T09:51:48.388Z,76.21
2023-11-01T09:54:18.564Z,76.26
2023-11-01T09:56:50.127Z,75.35
2023-11-01T09:59:19.426Z,75.37
2023-11-01T10:01:48.795Z,75.47
2023-11-01T10:04:18.323Z,75.36
2023-11-01T10:06:47.990Z,74.85
2023-11-01T10:09:17.212Z,75.70
2023-11-01T10:11:48.496Z,75.07
2023-11-01T10:14:29.375Z,74.62
2023-11-01T10:17:00.596Z,75.51
2023-11-01T10:19:30.894Z,75.77
2023-11-01T10:22:00.544Z,75.52
2023-11-01T10:24:30.634Z,75.73
2023-11-01T10:27:01.655Z,75.64
2023-11-01T10:29:31.047Z,75.68
2023-11-01T10:32:01.484Z,75.62
2023-11-01T10:34:31.729Z,75.67
2023-11-01T10:37:05.648Z,75.16
2023-11-01T10:39:37.374Z,75.66
2023-11-01T10:42:10.845Z,76.32
2023-11-01T10:44:40.736Z,76.64
2023-11-01T10:47:10.790Z,76.79
2023-11-01T10:49:43.831Z,76.36
2023-11-01T10:52:15.109Z,76.09
2023-11-01T10:54:49.609Z,74.95
2023-11-01T10:57:20.906Z,74.65
2023-11-01T11:00:01.199Z,74.71
2023-11-01T11:02:39.812Z,74.32
2023-11-01T11:05:14.757Z,74.82
2023-11-01T11:07:51.254Z,75.64
2023-11-01T11:10:27.936Z,74.34
2023-11-01T11:13:33.994Z,73.74
2023-11-01T11:16:08.081Z,73.37
2023-11-01T11:18:58.444Z,75.23
2023-11-01T11:22:04.053Z,73.78
2023-11-01T11:24:59.266Z,73.15
2023-11-01T11:27:53.618Z,73.56
2023-11-01T11:31:10.069Z,74.76
2023-11-01T11:34:12.833Z,73.95
2023-11-01T11:37:05.966Z,73.70
2023-11-01T11:39:55.119Z,73.93
2023-11-01T11:42:53.064Z,73.82
2023-11-01T11:45:32.858Z,73.59
2023-11-01T11:48:04.857Z,73.93
2023-11-01T11:50:35.589Z,74.02
2023-11-01T11:53:05.315Z,74.13
2023-11-01T11:55:45.591Z,72.26
2023-11-01T11:58:15.350Z,73.85
2023-11-01T12:00:49.094Z,73.18
2023-11-01T12:03:26.379Z,73.59
2023-11-01T12:06:02.311Z,72.66
2023-11-01T12:08:39.443Z,72.37
2023-11-01T12:11:10.317Z,72.62
2023-11-01T12:13:43.968Z,73.30
2023-11-01T12:16:26.267Z,73.77
2023-11-01T12:19:18.183Z,74.01
2023-11-01T12:21:50.898Z,75.33
2023-11-01T12:24:22.157Z,74.73
2023-11-01T12:27:08.009Z,72.61
2023-11-01T12:29:43.102Z,71.61
2023-11-01T12:32:13.804Z,72.64
2023-11-01T12:35:06.186Z,72.24
2023-11-01T12:37:38.496Z,73.44
2023-11-01T12:40:12.178Z,72.37
2023-11-01T12:42:42.982Z,72.81
2023-11-01T12:45:13.324Z,71.59
2023-11-01T12:47:44.675Z,71.54
2023-11-01T12:50:18.463Z,71.54
2023-11-01T12:52:50.079Z,71.62
2023-11-01T12:55:20.226Z,71.64
2023-11-01T12:57:51.423Z,71.71
2023-11-01T13:00:22.145Z,71.19
2023-11-01T13:02:51.709Z,72.97
2023-11-01T13:05:21.751Z,73.59
2023-11-01T13:07:52.503Z,74.05
2023-11-01T13:10:22.081Z,74.24
2023-11-01T13:12:51.503Z,73.32
2023-11-01T13:15:21.102Z,75.11
2023-11-01T13:17:50.564Z,74.77
2023-11-01T13:20:19.807Z,75.17
2023-11-01T13:22:50.272Z,75.85
2023-11-01T13:25:22.092Z,72.59
2023-11-01T13:27:51.563Z,74.25
2023-11-01T13:30:20.740Z,75.67
2023-11-01T13:32:50.066Z,75.37
2023-11-01T13:35:19.912Z,74.66
2023-11-01T13:37:49.146Z,73.93
2023-11-01T13:40:18.507Z,75.91
2023-11-01T13:42:49.159Z,74.41
2023-11-01T13:45:18.722Z,73.73
2023-11-01T13:47:48.221Z,75.16
2023-11-01T13:50:17.699Z,74.40
2023-11-01T13:52:46.934Z,75.67
2023-11-01T13:55:16.176Z,76.05
2023-11-01T13:57:48.559Z,74.92
2023-11-01T14:00:18.710Z,75.04
2023-11-01T14:02:48.179Z,76.17
2023-11-01T14:05:21.093Z,76.94
2023-11-01T14:07:52.072Z,77.07
2023-11-01T14:10:22.992Z,77.24
2023-11-01T14:12:53.788Z,77.02
2023-11-01T14:15:23.302Z,77.34
2023-11-01T14:17:54.721Z,77.46
2023-11-01T14:20:24.256Z,77.53
2023-11-01T14:22:54.711Z,77.48
2023-11-01T14:25:24.345Z,77.62
2023-11-01T14:27:55.071Z,77.67
2023-11-01T14:30:24.609Z,77.56
2023-11-01T14:32:54.203Z,77.64
2023-11-01T14:35:24.264Z,77.62
2023-11-01T14:37:53.546Z,77.69
2023-11-01T14:40:22.955Z,77.56
2023-11-01T14:42:53.550Z,77.61
2023-11-01T14:45:23.002Z,77.70
2023-11-01T14:47:53.212Z,77.64
2023-11-01T14:50:23.128Z,77.85
2023-11-01T14:52:52.555Z,77.95
2023-11-01T14:55:25.907Z,77.89
2023-11-01T14:57:57.788Z,77.92
2023-11-01T15:00:28.757Z,77.81
2023-11-01T15:02:58.660Z,77.81
2023-11-01T15:05:30.956Z,77.82
2023-11-01T15:08:00.876Z,77.80
2023-11-01T15:10:34.479Z,77.61
2023-11-01T15:13:07.701Z,77.64
2023-11-01T15:15:40.024Z,77.53
2023-11-01T15:18:09.567Z,77.55
2023-11-01T15:20:39.770Z,77.61
2023-11-01T15:23:10.673Z,77.56
2023-11-01T15:25:48.152Z,77.56
2023-11-01T15:28:20.913Z,77.45
2023-11-01T15:30:54.048Z,77.59
2023-11-01T15:33:23.453Z,77.30
2023-11-01T15:35:53.345Z,77.37
2023-11-01T15:38:22.716Z,77.40
2023-11-01T15:40:52.146Z,77.25
2023-11-01T15:43:22.834Z,77.17
2023-11-01T15:45:52.490Z,77.18
2023-11-01T15:48:23.082Z,77.12
2023-11-01T15:50:54.018Z,77.14
2023-11-01T15:53:26.608Z,77.05
2023-11-01T15:55:56.232Z,77.38
2023-11-01T15:58:28.459Z,77.21
2023-11-01T16:00:58.248Z,77.10
2023-11-01T16:03:28.240Z,77.25
2023-11-01T16:05:58.466Z,77.16
2023-11-01T16:08:27.435Z,77.01
2023-11-01T16:10:57.779Z,76.89
2023-11-01T16:13:28.734Z,77.08
2023-11-01T16:15:58.911Z,76.71
2023-11-01T16:18:28.626Z,76.91
2023-11-01T16:20:58.860Z,77.00
2023-11-01T16:23:28.995Z,77.03
2023-11-01T16:26:00.512Z,76.87
2023-11-01T16:28:31.226Z,76.65
2023-11-01T16:31:01.069Z,76.90
2023-11-01T16:33:33.377Z,76.85
2023-11-01T16:36:03.335Z,76.96
2023-11-01T16:38:32.557Z,77.07
2023-11-01T16:41:03.723Z,76.98
2023-11-01T16:43:35.017Z,77.01
2023-11-01T16:46:07.806Z,76.99
2023-11-01T16:48:37.534Z,77.06
2023-11-01T16:51:07.184Z,76.95
2023-11-01T16:53:36.681Z,77.00
2023-11-01T16:56:06.945Z,76.84
2023-11-01T16:58:38.115Z,76.92
2023-11-01T17:01:08.376Z,76.90
2023-11-01T17:03:38.181Z,76.91
2023-11-01T17:06:11.044Z,76.88
2023-11-01T17:08:41.011Z,76.98
2023-11-01T17:11:10.697Z,76.83
2023-11-01T17:13:43.086Z,76.85
2023-11-01T17:16:14.324Z,77.23
2023-11-01T17:18:46.701Z,76.93
2023-11-01T17:21:20.044Z,76.93
2023-11-01T17:23:50.287Z,76.98
2023-11-01T17:26:27.976Z,77.01
2023-11-01T17:29:02.873Z,76.94
2023-11-01T17:31:42.267Z,77.07
2023-11-01T17:34:14.182Z,76.97
2023-11-01T17:36:44.190Z,77.13
2023-11-01T17:39:13.658Z,76.99
2023-11-01T17:42:02.382Z,76.89
2023-11-01T17:44:39.873Z,76.94
2023-11-01T17:47:12.681Z,77.01
2023-11-01T17:49:52.165Z,77.25
2023-11-01T17:52:31.074Z,77.08
2023-11-01T17:55:01.971Z,77.15
2023-11-01T17:57:35.366Z,77.10
2023-11-01T18:00:10.234Z,77.11
2023-11-01T18:03:26.255Z,76.97
2023-11-01T18:06:01.787Z,77.02
2023-11-01T18:08:34.485Z,76.76
2023-11-01T18:11:08.836Z,77.09
2023-11-01T18:13:45.395Z,77.07
2023-11-01T18:16:29.342Z,77.31
2023-11-01T18:19:00.370Z,77.26
2023-11-01T18:21:34.783Z,77.16
2023-11-01T18:24:09.445Z,77.14
2023-11-01T18:26:41.042Z,77.21
2023-11-01T18:29:29.413Z,77.13
2023-11-01T18:32:00.469Z,77.17
2023-11-01T18:34:36.062Z,77.17
2023-11-01T18:37:06.877Z,77.11
2023-11-01T18:39:39.599Z,77.26
2023-11-01T18:42:11.287Z,77.21
2023-11-01T18:44:48.233Z,77.18
2023-11-01T18:47:23.157Z,77.11
2023-11-01T18:50:01.908Z,77.26
2023-11-01T18:52:33.299Z,77.32
2023-11-01T18:55:08.126Z,77.09
2023-11-01T18:57:45.050Z,77.17
2023-11-01T19:00:25.947Z,77.19
2023-11-01T19:03:05.635Z,77.16
2023-11-01T19:05:38.986Z,77.01
2023-11-01T19:08:09.354Z,77.32
2023-11-01T19:10:41.557Z,77.15
2023-11-01T19:13:13.861Z,77.13
2023-11-01T19:16:18.460Z,77.27
2023-11-01T19:18:51.797Z,77.11
2023-11-01T19:21:26.910Z,77.10
2023-11-01T19:23:57.728Z,77.06
2023-11-01T19:26:30.251Z,77.14
2023-11-01T19:29:00.236Z,77.05
2023-11-01T19:31:30.107Z,77.20
2023-11-01T19:34:09.284Z,77.25
2023-11-01T19:36:42.325Z,77.10
2023-11-01T19:39:14.455Z,77.13
2023-11-01T19:41:47.020Z,77.10
2023-11-01T19:44:22.513Z,77.11
2023-11-01T19:46:56.024Z,77.30
2023-11-01T19:49:30.255Z,77.46
2023-11-01T19:52:03.381Z,77.22
2023-11-01T19:54:38.130Z,77.21
2023-11-01T19:57:13.058Z,77.29
2023-11-01T19:59:44.922Z,77.33
2023-11-01T20:02:15.890Z,77.31
2023-11-01T20:04:53.889Z,77.20
2023-11-01T20:07:25.976Z,77.33
2023-11-01T20:09:57.794Z,77.39
2023-11-01T20:12:29.100Z,77.47
2023-11-01T20:15:00.812Z,77.56
2023-11-01T20:17:31.247Z,77.40
2023-11-01T20:20:02.172Z,77.43
2023-11-01T20:22:41.639Z,77.46
2023-11-01T20:25:14.866Z,77.61
2023-11-01T20:27:47.318Z,77.69
2023-11-01T20:30:21.384Z,77.45
2023-11-01T20:32:51.465Z,77.79
2023-11-01T20:35:24.327Z,77.72
2023-11-01T20:37:56.829Z,77.80
2023-11-01T20:40:27.319Z,77.66
2023-11-01T20:42:58.733Z,77.89
2023-11-01T20:45:28.705Z,77.80
2023-11-01T20:47:59.878Z,77.82
2023-11-01T20:51:00.885Z,77.64
2023-11-01T20:53:36.486Z,77.72
2023-11-01T20:56:17.131Z,77.69
2023-11-01T20:58:57.303Z,77.84
2023-11-01T21:01:34.267Z,77.67
2023-11-01T21:04:29.960Z,77.75
2023-11-01T21:07:22.374Z,78.24
2023-11-01T21:09:56.814Z,78.77
2023-11-01T21:12:34.485Z,78.34
2023-11-01T21:15:09.665Z,78.20
2023-11-01T21:17:49.388Z,78.70
2023-11-01T21:20:30.945Z,78.20
2023-11-01T21:23:13.299Z,78.45
2023-11-01T21:25:59.994Z,78.38
2023-11-01T21:28:34.697Z,78.32
2023-11-01T21:31:14.746Z,78.32
2023-11-01T21:33:50.011Z,78.17
2023-11-01T21:36:22.231Z,78.28
2023-11-01T21:39:18.384Z,78.30
2023-11-01T21:42:01.319Z,78.29
2023-11-01T21:44:52.104Z,78.30
2023-11-01T21:47:39.454Z,78.35
2023-11-01T21:50:52.968Z,78.38
2023-11-01T21:53:24.369Z,78.40
2023-11-01T21:56:05.286Z,78.38
2023-11-01T21:58:38.896Z,78.31
2023-11-01T22:01:35.710Z,78.49
2023-11-01T22:04:21.645Z,78.56
2023-11-01T22:06:53.292Z,78.76
2023-11-01T22:09:22.830Z,78.88
2023-11-01T22:11:54.098Z,79.14
2023-11-01T22:14:32.191Z,79.15
2023-11-01T22:17:03.054Z,79.31
2023-11-01T22:19:38.372Z,79.37
2023-11-01T22:22:31.957Z,79.38
2023-11-01T22:25:01.572Z,79.56
2023-11-01T22:27:48.349Z,79.82
2023-11-01T22:30:20.074Z,79.83
2023-11-01T22:32:49.634Z,79.76
2023-11-01T22:35:35.237Z,79.84
2023-11-01T22:38:04.544Z,80.01
2023-11-01T22:40:35.598Z,80.23
2023-11-01T22:43:06.537Z,80.11
2023-11-01T22:45:36.140Z,80.12
2023-11-01T22:48:06.347Z,80.49
2023-11-01T22:50:35.876Z,80.16
2023-11-01T22:53:05.092Z,80.17
2023-11-01T22:55:41.240Z,80.29
2023-11-01T22:58:13.337Z,80.40
2023-11-01T23:00:44.010Z,80.30
2023-11-01T23:03:13.383Z,80.42
2023-11-01T23:05:42.946Z,80.46
2023-11-01T23:08:12.177Z,80.72
2023-11-01T23:10:41.682Z,80.62
2023-11-01T23:13:12.175Z,80.68
2023-11-01T23:15:41.692Z,80.71
2023-11-01T23:18:12.380Z,80.68
2023-11-01T23:20:44.400Z,80.85
2023-11-01T23:23:13.568Z,81.02
2023-11-01T23:25:42.966Z,80.99
2023-11-01T23:28:36.882Z,80.99
2023-11-01T23:31:06.896Z,81.03
2023-11-01T23:33:38.672Z,80.84
2023-11-01T23:36:14.005Z,81.00
2023-11-01T23:38:50.575Z,80.95
2023-11-01T23:41:42.512Z,80.90
2023-11-01T23:44:13.923Z,81.11
2023-11-01T23:46:44.101Z,81.02
2023-11-01T23:49:25.140Z,81.07
2023-11-01T23:51:59.386Z,80.98
2023-11-01T23:54:29.829Z,81.15
2023-11-01T23:57:02.066Z,81.31
2023-11-01T23:59:32.815Z,81.22
